sensor_id;sensor_type;location;lat;lon;timestamp;P1;durP1;ratioP1;P2;durP2;ratioP2
17504;SDS011;8870;50.950;11.762;2022-07-06T00:04:50;2.80;;;0.68;;
17504;SDS011;8870;50.950;11.762;2022-07-06T00:09:55;1.30;;;0.70;;
17504;SDS011;8870;50.950;11.762;2022-07-06T00:15:03;2.67;;;0.65;;
17504;SDS011;8870;50.950;11.762;2022-07-06T00:20:09;1.33;;;0.70;;
17504;SDS011;8870;50.950;11.762;2022-07-06T00:25:15;1.92;;;0.70;;
17504;SDS011;8870;50.950;11.762;2022-07-06T00:30:22;2.22;;;0.77;;
17504;SDS011;8870;50.950;11.762;2022-07-06T00:35:27;1.50;;;0.73;;
17504;SDS011;8870;50.950;11.762;2022-07-06T00:40:32;2.80;;;0.60;;
17504;SDS011;8870;50.950;11.762;2022-07-06T00:45:40;1.05;;;0.60;;
17504;SDS011;8870;50.950;11.762;2022-07-06T00:50:46;1.05;;;0.43;;
17504;SDS011;8870;50.950;11.762;2022-07-06T00:55:51;1.27;;;0.50;;
17504;SDS011;8870;50.950;11.762;2022-07-06T01:00:59;2.45;;;0.70;;
17504;SDS011;8870;50.950;11.762;2022-07-06T01:06:05;1.13;;;0.77;;
17504;SDS011;8870;50.950;11.762;2022-07-06T01:11:10;1.63;;;0.68;;
17504;SDS011;8870;50.950;11.762;2022-07-06T01:16:18;0.95;;;0.50;;
17504;SDS011;8870;50.950;11.762;2022-07-06T01:21:27;4.65;;;0.82;;
17504;SDS011;8870;50.950;11.762;2022-07-06T01:26:31;2.75;;;0.70;;
17504;SDS011;8870;50.950;11.762;2022-07-06T01:31:44;2.05;;;0.60;;
17504;SDS011;8870;50.950;11.762;2022-07-06T01:36:53;4.68;;;0.80;;
17504;SDS011;8870;50.950;11.762;2022-07-06T01:41:58;2.50;;;0.63;;
17504;SDS011;8870;50.950;11.762;2022-07-06T01:47:05;3.92;;;0.70;;
17504;SDS011;8870;50.950;11.762;2022-07-06T01:52:13;1.50;;;0.60;;
17504;SDS011;8870;50.950;11.762;2022-07-06T01:57:18;2.00;;;0.70;;
17504;SDS011;8870;50.950;11.762;2022-07-06T02:02:23;1.00;;;0.60;;
17504;SDS011;8870;50.950;11.762;2022-07-06T02:07:31;2.70;;;0.70;;
17504;SDS011;8870;50.950;11.762;2022-07-06T02:12:36;1.85;;;0.68;;
17504;SDS011;8870;50.950;11.762;2022-07-06T02:17:41;2.60;;;0.70;;
17504;SDS011;8870;50.950;11.762;2022-07-06T02:22:49;1.15;;;0.70;;
17504;SDS011;8870;50.950;11.762;2022-07-06T02:27:54;2.00;;;0.60;;
17504;SDS011;8870;50.950;11.762;2022-07-06T02:33:00;1.17;;;0.60;;
17504;SDS011;8870;50.950;11.762;2022-07-06T02:38:09;2.42;;;0.60;;
17504;SDS011;8870;50.950;11.762;2022-07-06T02:43:14;2.05;;;0.68;;
17504;SDS011;8870;50.950;11.762;2022-07-06T02:48:19;2.60;;;0.60;;
17504;SDS011;8870;50.950;11.762;2022-07-06T02:53:28;3.60;;;0.75;;
17504;SDS011;8870;50.950;11.762;2022-07-06T02:58:34;1.13;;;0.50;;
17504;SDS011;8870;50.950;11.762;2022-07-06T03:03:39;2.80;;;0.60;;
17504;SDS011;8870;50.950;11.762;2022-07-06T03:08:47;2.22;;;0.60;;
17504;SDS011;8870;50.950;11.762;2022-07-06T03:13:53;1.98;;;0.60;;
17504;SDS011;8870;50.950;11.762;2022-07-06T03:18:58;2.05;;;0.70;;
17504;SDS011;8870;50.950;11.762;2022-07-06T03:24:08;4.30;;;0.80;;
17504;SDS011;8870;50.950;11.762;2022-07-06T03:29:21;1.48;;;0.50;;
17504;SDS011;8870;50.950;11.762;2022-07-06T03:34:27;3.40;;;0.68;;
17504;SDS011;8870;50.950;11.762;2022-07-06T03:39:36;2.13;;;0.70;;
17504;SDS011;8870;50.950;11.762;2022-07-06T03:44:42;2.50;;;0.60;;
17504;SDS011;8870;50.950;11.762;2022-07-06T03:49:47;1.77;;;0.68;;
17504;SDS011;8870;50.950;11.762;2022-07-06T03:54:55;2.45;;;0.70;;
17504;SDS011;8870;50.950;11.762;2022-07-06T04:00:04;1.73;;;0.70;;
17504;SDS011;8870;50.950;11.762;2022-07-06T04:05:23;1.63;;;0.73;;
17504;SDS011;8870;50.950;11.762;2022-07-06T04:10:31;4.03;;;0.70;;
17504;SDS011;8870;50.950;11.762;2022-07-06T04:15:37;1.92;;;0.60;;
17504;SDS011;8870;50.950;11.762;2022-07-06T04:20:42;2.83;;;0.68;;
17504;SDS011;8870;50.950;11.762;2022-07-06T04:25:50;3.15;;;0.70;;
17504;SDS011;8870;50.950;11.762;2022-07-06T04:30:55;1.55;;;0.75;;
17504;SDS011;8870;50.950;11.762;2022-07-06T04:36:01;2.35;;;0.80;;
17504;SDS011;8870;50.950;11.762;2022-07-06T04:41:15;1.60;;;0.70;;
17504;SDS011;8870;50.950;11.762;2022-07-06T04:46:21;2.88;;;0.80;;
17504;SDS011;8870;50.950;11.762;2022-07-06T04:51:28;3.92;;;0.85;;
17504;SDS011;8870;50.950;11.762;2022-07-06T04:56:36;2.38;;;0.77;;
17504;SDS011;8870;50.950;11.762;2022-07-06T05:01:42;2.60;;;0.60;;
17504;SDS011;8870;50.950;11.762;2022-07-06T05:06:47;3.88;;;0.60;;
17504;SDS011;8870;50.950;11.762;2022-07-06T05:11:55;3.22;;;0.75;;
17504;SDS011;8870;50.950;11.762;2022-07-06T05:17:00;2.38;;;0.80;;
17504;SDS011;8870;50.950;11.762;2022-07-06T05:22:05;4.00;;;0.90;;
17504;SDS011;8870;50.950;11.762;2022-07-06T05:27:12;3.92;;;0.70;;
17504;SDS011;8870;50.950;11.762;2022-07-06T05:32:20;5.45;;;0.90;;
17504;SDS011;8870;50.950;11.762;2022-07-06T05:37:25;2.92;;;0.80;;
17504;SDS011;8870;50.950;11.762;2022-07-06T05:42:33;2.20;;;0.80;;
17504;SDS011;8870;50.950;11.762;2022-07-06T05:47:39;2.35;;;0.88;;
17504;SDS011;8870;50.950;11.762;2022-07-06T05:52:57;2.78;;;0.80;;
17504;SDS011;8870;50.950;11.762;2022-07-06T05:58:16;1.48;;;0.70;;
17504;SDS011;8870;50.950;11.762;2022-07-06T06:03:22;4.05;;;0.80;;
17504;SDS011;8870;50.950;11.762;2022-07-06T06:08:28;4.78;;;0.90;;
17504;SDS011;8870;50.950;11.762;2022-07-06T06:13:37;1.45;;;0.80;;
17504;SDS011;8870;50.950;11.762;2022-07-06T06:18:42;1.98;;;0.70;;
17504;SDS011;8870;50.950;11.762;2022-07-06T06:23:47;2.85;;;0.85;;
17504;SDS011;8870;50.950;11.762;2022-07-06T06:28:55;5.15;;;1.00;;
17504;SDS011;8870;50.950;11.762;2022-07-06T06:34:00;3.10;;;0.70;;
17504;SDS011;8870;50.950;11.762;2022-07-06T06:39:05;2.45;;;0.70;;
17504;SDS011;8870;50.950;11.762;2022-07-06T06:44:12;2.17;;;0.70;;
17504;SDS011;8870;50.950;11.762;2022-07-06T06:49:17;3.13;;;0.80;;
17504;SDS011;8870;50.950;11.762;2022-07-06T06:54:22;2.45;;;0.73;;
17504;SDS011;8870;50.950;11.762;2022-07-06T06:59:30;3.70;;;0.77;;
17504;SDS011;8870;50.950;11.762;2022-07-06T07:04:35;4.68;;;0.88;;
17504;SDS011;8870;50.950;11.762;2022-07-06T07:09:40;3.55;;;0.80;;
17504;SDS011;8870;50.950;11.762;2022-07-06T07:14:47;2.33;;;0.68;;
17504;SDS011;8870;50.950;11.762;2022-07-06T07:19:53;2.53;;;0.80;;
17504;SDS011;8870;50.950;11.762;2022-07-06T07:24:59;3.08;;;0.85;;
17504;SDS011;8870;50.950;11.762;2022-07-06T07:30:07;2.20;;;0.75;;
17504;SDS011;8870;50.950;11.762;2022-07-06T07:35:13;2.00;;;0.63;;
17504;SDS011;8870;50.950;11.762;2022-07-06T07:40:18;2.85;;;0.80;;
17504;SDS011;8870;50.950;11.762;2022-07-06T07:45:26;2.10;;;0.80;;
17504;SDS011;8870;50.950;11.762;2022-07-06T07:50:31;2.35;;;0.70;;
17504;SDS011;8870;50.950;11.762;2022-07-06T07:55:36;2.35;;;0.82;;
17504;SDS011;8870;50.950;11.762;2022-07-06T08:00:45;2.22;;;0.80;;
17504;SDS011;8870;50.950;11.762;2022-07-06T08:05:50;2.35;;;0.80;;
17504;SDS011;8870;50.950;11.762;2022-07-06T08:10:55;1.80;;;0.88;;
17504;SDS011;8870;50.950;11.762;2022-07-06T08:16:23;2.55;;;0.80;;
17504;SDS011;8870;50.950;11.762;2022-07-06T08:21:28;1.98;;;0.70;;
17504;SDS011;8870;50.950;11.762;2022-07-06T08:26:33;2.10;;;0.73;;
17504;SDS011;8870;50.950;11.762;2022-07-06T08:31:41;1.77;;;0.85;;
17504;SDS011;8870;50.950;11.762;2022-07-06T08:36:56;3.45;;;0.65;;
17504;SDS011;8870;50.950;11.762;2022-07-06T08:42:01;2.33;;;0.70;;
17504;SDS011;8870;50.950;11.762;2022-07-06T08:47:09;2.25;;;0.80;;
17504;SDS011;8870;50.950;11.762;2022-07-06T08:52:19;2.50;;;0.90;;
17504;SDS011;8870;50.950;11.762;2022-07-06T08:57:25;3.50;;;0.60;;
17504;SDS011;8870;50.950;11.762;2022-07-06T09:02:34;2.97;;;0.98;;
17504;SDS011;8870;50.950;11.762;2022-07-06T09:07:39;2.15;;;0.80;;
17504;SDS011;8870;50.950;11.762;2022-07-06T09:13:01;2.58;;;0.70;;
17504;SDS011;8870;50.950;11.762;2022-07-06T09:18:10;2.92;;;0.80;;
17504;SDS011;8870;50.950;11.762;2022-07-06T09:28:42;2.80;;;0.60;;
17504;SDS011;8870;50.950;11.762;2022-07-06T09:33:58;2.30;;;0.90;;
17504;SDS011;8870;50.950;11.762;2022-07-06T09:44:31;3.03;;;0.88;;
17504;SDS011;8870;50.950;11.762;2022-07-06T09:49:40;3.92;;;0.90;;
17504;SDS011;8870;50.950;11.762;2022-07-06T09:54:48;1.50;;;0.80;;
17504;SDS011;8870;50.950;11.762;2022-07-06T10:05:42;3.17;;;0.90;;
17504;SDS011;8870;50.950;11.762;2022-07-06T10:27:28;2.80;;;0.80;;
17504;SDS011;8870;50.950;11.762;2022-07-06T10:32:33;4.82;;;0.80;;
17504;SDS011;8870;50.950;11.762;2022-07-06T10:37:42;2.47;;;1.00;;
17504;SDS011;8870;50.950;11.762;2022-07-06T10:42:56;5.10;;;0.70;;
17504;SDS011;8870;50.950;11.762;2022-07-06T10:48:17;2.05;;;0.75;;
17504;SDS011;8870;50.950;11.762;2022-07-06T10:53:27;1.67;;;0.70;;
17504;SDS011;8870;50.950;11.762;2022-07-06T10:58:35;2.13;;;0.70;;
17504;SDS011;8870;50.950;11.762;2022-07-06T11:03:42;2.25;;;0.80;;
17504;SDS011;8870;50.950;11.762;2022-07-06T11:08:55;1.52;;;0.50;;
17504;SDS011;8870;50.950;11.762;2022-07-06T11:14:02;3.35;;;0.57;;
17504;SDS011;8870;50.950;11.762;2022-07-06T11:19:10;2.67;;;0.70;;
17504;SDS011;8870;50.950;11.762;2022-07-06T11:24:19;3.15;;;0.60;;
17504;SDS011;8870;50.950;11.762;2022-07-06T11:29:25;1.02;;;0.40;;
17504;SDS011;8870;50.950;11.762;2022-07-06T11:34:32;2.78;;;0.60;;
17504;SDS011;8870;50.950;11.762;2022-07-06T11:39:42;2.80;;;0.43;;
17504;SDS011;8870;50.950;11.762;2022-07-06T11:44:48;2.30;;;0.60;;
17504;SDS011;8870;50.950;11.762;2022-07-06T11:49:53;0.85;;;0.47;;
17504;SDS011;8870;50.950;11.762;2022-07-06T11:55:01;2.47;;;0.65;;
17504;SDS011;8870;50.950;11.762;2022-07-06T12:00:06;2.35;;;0.60;;
17504;SDS011;8870;50.950;11.762;2022-07-06T12:05:13;5.53;;;0.50;;
17504;SDS011;8870;50.950;11.762;2022-07-06T12:10:36;3.55;;;0.60;;
17504;SDS011;8870;50.950;11.762;2022-07-06T12:15:41;0.82;;;0.45;;
17504;SDS011;8870;50.950;11.762;2022-07-06T12:20:46;0.70;;;0.50;;
17504;SDS011;8870;50.950;11.762;2022-07-06T12:25:53;1.52;;;0.40;;
17504;SDS011;8870;50.950;11.762;2022-07-06T12:30:59;1.77;;;0.50;;
17504;SDS011;8870;50.950;11.762;2022-07-06T12:36:10;3.53;;;0.52;;
17504;SDS011;8870;50.950;11.762;2022-07-06T12:41:29;2.72;;;0.60;;
17504;SDS011;8870;50.950;11.762;2022-07-06T12:46:37;1.35;;;0.50;;
17504;SDS011;8870;50.950;11.762;2022-07-06T12:51:52;1.33;;;0.50;;
17504;SDS011;8870;50.950;11.762;2022-07-06T12:57:11;5.05;;;0.65;;
17504;SDS011;8870;50.950;11.762;2022-07-06T13:02:20;5.97;;;0.70;;
17504;SDS011;8870;50.950;11.762;2022-07-06T13:07:47;2.63;;;0.52;;
17504;SDS011;8870;50.950;11.762;2022-07-06T13:12:55;1.10;;;0.40;;
17504;SDS011;8870;50.950;11.762;2022-07-06T13:18:00;4.72;;;0.60;;
17504;SDS011;8870;50.950;11.762;2022-07-06T13:23:13;2.10;;;0.50;;
17504;SDS011;8870;50.950;11.762;2022-07-06T13:28:20;5.20;;;0.52;;
17504;SDS011;8870;50.950;11.762;2022-07-06T13:33:25;4.22;;;0.40;;
17504;SDS011;8870;50.950;11.762;2022-07-06T13:38:30;1.42;;;0.52;;
17504;SDS011;8870;50.950;11.762;2022-07-06T13:43:38;2.25;;;0.60;;
17504;SDS011;8870;50.950;11.762;2022-07-06T13:48:43;2.55;;;0.55;;
17504;SDS011;8870;50.950;11.762;2022-07-06T13:53:48;3.05;;;0.60;;
17504;SDS011;8870;50.950;11.762;2022-07-06T13:58:57;3.30;;;0.60;;
17504;SDS011;8870;50.950;11.762;2022-07-06T14:04:02;4.57;;;0.60;;
17504;SDS011;8870;50.950;11.762;2022-07-06T14:09:07;1.60;;;0.70;;
17504;SDS011;8870;50.950;11.762;2022-07-06T14:14:14;1.75;;;0.40;;
17504;SDS011;8870;50.950;11.762;2022-07-06T14:19:19;2.90;;;0.60;;
17504;SDS011;8870;50.950;11.762;2022-07-06T14:24:24;2.15;;;0.50;;
17504;SDS011;8870;50.950;11.762;2022-07-06T14:29:35;3.33;;;0.47;;
17504;SDS011;8870;50.950;11.762;2022-07-06T14:34:40;3.53;;;0.47;;
17504;SDS011;8870;50.950;11.762;2022-07-06T14:39:45;2.65;;;0.40;;
17504;SDS011;8870;50.950;11.762;2022-07-06T14:44:53;1.23;;;0.40;;
17504;SDS011;8870;50.950;11.762;2022-07-06T14:49:58;2.60;;;0.40;;
17504;SDS011;8870;50.950;11.762;2022-07-06T14:55:03;2.85;;;0.40;;
17504;SDS011;8870;50.950;11.762;2022-07-06T15:00:18;2.10;;;0.35;;
17504;SDS011;8870;50.950;11.762;2022-07-06T15:05:24;1.67;;;0.50;;
17504;SDS011;8870;50.950;11.762;2022-07-06T15:10:30;2.33;;;0.50;;
17504;SDS011;8870;50.950;11.762;2022-07-06T15:15:39;2.55;;;0.50;;
17504;SDS011;8870;50.950;11.762;2022-07-06T15:21:07;1.60;;;0.38;;
17504;SDS011;8870;50.950;11.762;2022-07-06T15:26:14;4.45;;;0.60;;
17504;SDS011;8870;50.950;11.762;2022-07-06T15:31:26;3.70;;;0.30;;
17504;SDS011;8870;50.950;11.762;2022-07-06T15:36:34;2.30;;;0.40;;
17504;SDS011;8870;50.950;11.762;2022-07-06T15:41:39;0.75;;;0.40;;
17504;SDS011;8870;50.950;11.762;2022-07-06T15:46:47;1.90;;;0.45;;
17504;SDS011;8870;50.950;11.762;2022-07-06T15:51:52;2.67;;;0.40;;
17504;SDS011;8870;50.950;11.762;2022-07-06T15:56:57;2.60;;;0.40;;
17504;SDS011;8870;50.950;11.762;2022-07-06T16:02:05;1.60;;;0.50;;
17504;SDS011;8870;50.950;11.762;2022-07-06T16:07:14;4.10;;;0.50;;
17504;SDS011;8870;50.950;11.762;2022-07-06T16:12:39;1.63;;;0.60;;
17504;SDS011;8870;50.950;11.762;2022-07-06T16:17:47;1.85;;;0.50;;
17504;SDS011;8870;50.950;11.762;2022-07-06T16:22:53;0.88;;;0.40;;
17504;SDS011;8870;50.950;11.762;2022-07-06T16:27:58;2.10;;;0.40;;
17504;SDS011;8870;50.950;11.762;2022-07-06T16:33:07;1.90;;;0.50;;
17504;SDS011;8870;50.950;11.762;2022-07-06T16:38:21;1.40;;;0.50;;
17504;SDS011;8870;50.950;11.762;2022-07-06T16:43:26;1.23;;;0.47;;
17504;SDS011;8870;50.950;11.762;2022-07-06T16:48:35;1.73;;;0.45;;
17504;SDS011;8870;50.950;11.762;2022-07-06T16:53:40;1.98;;;0.52;;
17504;SDS011;8870;50.950;11.762;2022-07-06T17:04:11;1.50;;;0.40;;
17504;SDS011;8870;50.950;11.762;2022-07-06T17:09:22;5.38;;;0.40;;
17504;SDS011;8870;50.950;11.762;2022-07-06T17:14:27;3.40;;;0.65;;
17504;SDS011;8870;50.950;11.762;2022-07-06T17:19:35;1.67;;;0.40;;
17504;SDS011;8870;50.950;11.762;2022-07-06T17:24:40;0.80;;;0.40;;
17504;SDS011;8870;50.950;11.762;2022-07-06T17:29:45;0.65;;;0.28;;
17504;SDS011;8870;50.950;11.762;2022-07-06T17:34:53;1.23;;;0.47;;
17504;SDS011;8870;50.950;11.762;2022-07-06T17:39:58;2.88;;;0.40;;
17504;SDS011;8870;50.950;11.762;2022-07-06T17:45:03;1.45;;;0.55;;
17504;SDS011;8870;50.950;11.762;2022-07-06T17:50:12;2.58;;;0.60;;
17504;SDS011;8870;50.950;11.762;2022-07-06T17:55:17;1.10;;;0.40;;
17504;SDS011;8870;50.950;11.762;2022-07-06T18:00:22;1.33;;;0.50;;
17504;SDS011;8870;50.950;11.762;2022-07-06T18:05:31;0.63;;;0.30;;
17504;SDS011;8870;50.950;11.762;2022-07-06T18:10:36;0.98;;;0.30;;
17504;SDS011;8870;50.950;11.762;2022-07-06T18:15:41;3.38;;;0.50;;
17504;SDS011;8870;50.950;11.762;2022-07-06T18:20:48;1.15;;;0.40;;
17504;SDS011;8870;50.950;11.762;2022-07-06T18:25:54;1.70;;;0.50;;
17504;SDS011;8870;50.950;11.762;2022-07-06T18:30:59;1.23;;;0.40;;
17504;SDS011;8870;50.950;11.762;2022-07-06T18:36:07;3.72;;;0.40;;
17504;SDS011;8870;50.950;11.762;2022-07-06T18:41:12;2.25;;;0.60;;
17504;SDS011;8870;50.950;11.762;2022-07-06T18:46:18;1.80;;;0.50;;
17504;SDS011;8870;50.950;11.762;2022-07-06T18:51:29;3.30;;;0.40;;
17504;SDS011;8870;50.950;11.762;2022-07-06T18:56:35;4.22;;;0.50;;
17504;SDS011;8870;50.950;11.762;2022-07-06T19:01:41;4.22;;;0.50;;
17504;SDS011;8870;50.950;11.762;2022-07-06T19:06:50;1.10;;;0.30;;
17504;SDS011;8870;50.950;11.762;2022-07-06T19:11:55;2.10;;;0.40;;
17504;SDS011;8870;50.950;11.762;2022-07-06T19:17:00;1.95;;;0.40;;
17504;SDS011;8870;50.950;11.762;2022-07-06T19:22:08;2.40;;;0.35;;
17504;SDS011;8870;50.950;11.762;2022-07-06T19:27:14;0.80;;;0.50;;
17504;SDS011;8870;50.950;11.762;2022-07-06T19:32:20;1.48;;;0.47;;
17504;SDS011;8870;50.950;11.762;2022-07-06T19:37:30;1.85;;;0.47;;
17504;SDS011;8870;50.950;11.762;2022-07-06T19:42:35;1.33;;;0.40;;
17504;SDS011;8870;50.950;11.762;2022-07-06T19:47:40;1.42;;;0.40;;
17504;SDS011;8870;50.950;11.762;2022-07-06T19:52:48;1.48;;;0.35;;
17504;SDS011;8870;50.950;11.762;2022-07-06T19:57:53;1.63;;;0.38;;
17504;SDS011;8870;50.950;11.762;2022-07-06T20:03:00;0.85;;;0.38;;
17504;SDS011;8870;50.950;11.762;2022-07-06T20:08:08;1.35;;;0.40;;
17504;SDS011;8870;50.950;11.762;2022-07-06T20:13:13;2.50;;;0.40;;
17504;SDS011;8870;50.950;11.762;2022-07-06T20:18:18;0.70;;;0.28;;
17504;SDS011;8870;50.950;11.762;2022-07-06T20:23:26;3.13;;;0.50;;
17504;SDS011;8870;50.950;11.762;2022-07-06T20:28:31;1.35;;;0.50;;
17504;SDS011;8870;50.950;11.762;2022-07-06T20:33:40;4.07;;;0.60;;
17504;SDS011;8870;50.950;11.762;2022-07-06T20:38:48;4.47;;;0.55;;
17504;SDS011;8870;50.950;11.762;2022-07-06T20:43:53;4.22;;;0.57;;
17504;SDS011;8870;50.950;11.762;2022-07-06T20:48:58;6.07;;;0.80;;
17504;SDS011;8870;50.950;11.762;2022-07-06T20:54:06;5.68;;;1.00;;
17504;SDS011;8870;50.950;11.762;2022-07-06T20:59:13;6.18;;;0.70;;
17504;SDS011;8870;50.950;11.762;2022-07-06T21:04:17;6.68;;;0.73;;
17504;SDS011;8870;50.950;11.762;2022-07-06T21:09:27;5.13;;;0.75;;
17504;SDS011;8870;50.950;11.762;2022-07-06T21:14:32;6.40;;;0.60;;
17504;SDS011;8870;50.950;11.762;2022-07-06T21:19:37;5.00;;;0.73;;
17504;SDS011;8870;50.950;11.762;2022-07-06T21:24:45;3.03;;;0.60;;
17504;SDS011;8870;50.950;11.762;2022-07-06T21:29:51;2.03;;;0.68;;
17504;SDS011;8870;50.950;11.762;2022-07-06T21:34:56;1.88;;;0.55;;
17504;SDS011;8870;50.950;11.762;2022-07-06T21:40:07;3.83;;;0.68;;
17504;SDS011;8870;50.950;11.762;2022-07-06T21:50:19;3.67;;;0.70;;
17504;SDS011;8870;50.950;11.762;2022-07-06T21:55:28;1.88;;;0.60;;
17504;SDS011;8870;50.950;11.762;2022-07-06T22:00:33;5.40;;;0.80;;
17504;SDS011;8870;50.950;11.762;2022-07-06T22:05:40;2.67;;;0.63;;
17504;SDS011;8870;50.950;11.762;2022-07-06T22:10:48;1.60;;;0.50;;
17504;SDS011;8870;50.950;11.762;2022-07-06T22:15:53;6.82;;;0.70;;
17504;SDS011;8870;50.950;11.762;2022-07-06T22:20:59;2.90;;;0.60;;
17504;SDS011;8870;50.950;11.762;2022-07-06T22:26:07;3.67;;;0.60;;
17504;SDS011;8870;50.950;11.762;2022-07-06T22:31:15;4.32;;;0.65;;
17504;SDS011;8870;50.950;11.762;2022-07-06T22:36:22;2.65;;;0.70;;
17504;SDS011;8870;50.950;11.762;2022-07-06T22:41:32;3.15;;;0.60;;
17504;SDS011;8870;50.950;11.762;2022-07-06T22:46:38;4.05;;;0.60;;
17504;SDS011;8870;50.950;11.762;2022-07-06T22:51:43;2.63;;;0.50;;
17504;SDS011;8870;50.950;11.762;2022-07-06T22:56:50;2.90;;;0.55;;
17504;SDS011;8870;50.950;11.762;2022-07-06T23:01:55;0.75;;;0.35;;
17504;SDS011;8870;50.950;11.762;2022-07-06T23:07:00;1.67;;;0.60;;
17504;SDS011;8870;50.950;11.762;2022-07-06T23:12:08;2.03;;;0.50;;
17504;SDS011;8870;50.950;11.762;2022-07-06T23:17:13;3.50;;;0.60;;
17504;SDS011;8870;50.950;11.762;2022-07-06T23:22:18;2.53;;;0.60;;
17504;SDS011;8870;50.950;11.762;2022-07-06T23:27:26;1.77;;;0.60;;
17504;SDS011;8870;50.950;11.762;2022-07-06T23:32:31;2.22;;;0.50;;
17504;SDS011;8870;50.950;11.762;2022-07-06T23:37:36;1.00;;;0.50;;
17504;SDS011;8870;50.950;11.762;2022-07-06T23:42:45;1.40;;;0.50;;
17504;SDS011;8870;50.950;11.762;2022-07-06T23:47:50;1.38;;;0.45;;
17504;SDS011;8870;50.950;11.762;2022-07-06T23:52:55;0.80;;;0.40;;
17504;SDS011;8870;50.950;11.762;2022-07-06T23:58:03;3.05;;;0.47;;
